sensor_id;sensor_type;location;lat;lon;timestamp;pressure;altitude;pressure_sealevel;temperature;humidity
84387;BME280;74580;47.078;15.446;2024-03-02T00:02:13;96709.75;;;22.65;36.15
84387;BME280;74580;47.078;15.446;2024-03-02T00:04:39;96715.19;;;22.65;36.10
84387;BME280;74580;47.078;15.446;2024-03-02T00:07:06;96718.69;;;22.65;36.09
84387;BME280;74580;47.078;15.446;2024-03-02T00:09:32;96716.34;;;22.64;36.13
84387;BME280;74580;47.078;15.446;2024-03-02T00:12:00;96721.00;;;22.63;36.06
84387;BME280;74580;47.078;15.446;2024-03-02T00:14:27;96719.06;;;22.64;35.97
84387;BME280;74580;47.078;15.446;2024-03-02T00:16:55;96723.34;;;22.65;36.29
84387;BME280;74580;47.078;15.446;2024-03-02T00:19:21;96719.88;;;22.64;36.25
84387;BME280;74580;47.078;15.446;2024-03-02T00:21:46;96716.34;;;22.64;36.16
84387;BME280;74580;47.078;15.446;2024-03-02T00:24:20;96719.88;;;22.64;36.03
84387;BME280;74580;47.078;15.446;2024-03-02T00:26:46;96715.19;;;22.65;35.96
84387;BME280;74580;47.078;15.446;2024-03-02T00:29:15;96719.06;;;22.64;36.06
84387;BME280;74580;47.078;15.446;2024-03-02T00:31:41;96724.53;;;22.64;36.12
84387;BME280;74580;47.078;15.446;2024-03-02T00:34:07;96728.03;;;22.64;35.69
84387;BME280;74580;47.078;15.446;2024-03-02T00:36:33;96731.13;;;22.63;36.08
84387;BME280;74580;47.078;15.446;2024-03-02T00:38:58;96725.69;;;22.63;36.08
84387;BME280;74580;47.078;15.446;2024-03-02T00:41:30;96723.72;;;22.63;36.02
84387;BME280;74580;47.078;15.446;2024-03-02T00:44:00;96713.63;;;22.64;36.06
84387;BME280;74580;47.078;15.446;2024-03-02T00:46:28;96711.28;;;22.62;36.01
84387;BME280;74580;47.078;15.446;2024-03-02T00:49:00;96722.56;;;22.61;36.26
84387;BME280;74580;47.078;15.446;2024-03-02T00:51:27;96720.63;;;22.61;36.09
84387;BME280;74580;47.078;15.446;2024-03-02T00:53:54;96718.66;;;22.62;35.96
84387;BME280;74580;47.078;15.446;2024-03-02T00:56:22;96719.06;;;22.64;35.75
84387;BME280;74580;47.078;15.446;2024-03-02T00:58:48;96722.97;;;22.63;35.96
84387;BME280;74580;47.078;15.446;2024-03-02T01:01:13;96724.09;;;22.62;36.17
84387;BME280;74580;47.078;15.446;2024-03-02T01:03:39;96720.25;;;22.63;35.90
84387;BME280;74580;47.078;15.446;2024-03-02T01:06:06;96714.81;;;22.63;36.17
84387;BME280;74580;47.078;15.446;2024-03-02T01:08:33;96716.72;;;22.62;36.06
84387;BME280;74580;47.078;15.446;2024-03-02T01:10:59;96718.28;;;22.63;35.99
84387;BME280;74580;47.078;15.446;2024-03-02T01:13:24;96715.94;;;22.62;36.33
84387;BME280;74580;47.078;15.446;2024-03-02T01:15:50;96715.94;;;22.62;35.77
84387;BME280;74580;47.078;15.446;2024-03-02T01:18:15;96706.63;;;22.63;35.98
84387;BME280;74580;47.078;15.446;2024-03-02T01:20:41;96707.78;;;22.62;35.80
84387;BME280;74580;47.078;15.446;2024-03-02T01:23:06;96707.78;;;22.62;35.93
84387;BME280;74580;47.078;15.446;2024-03-02T01:25:32;96705.84;;;22.62;36.09
84387;BME280;74580;47.078;15.446;2024-03-02T01:27:57;96710.91;;;22.60;35.70
84387;BME280;74580;47.078;15.446;2024-03-02T01:30:22;96709.72;;;22.61;36.01
84387;BME280;74580;47.078;15.446;2024-03-02T01:32:48;96713.22;;;22.62;35.94
84387;BME280;74580;47.078;15.446;2024-03-02T01:35:13;96715.19;;;22.61;35.93
84387;BME280;74580;47.078;15.446;2024-03-02T01:37:40;96711.66;;;22.61;36.04
84387;BME280;74580;47.078;15.446;2024-03-02T01:40:06;96715.94;;;22.62;35.76
84387;BME280;74580;47.078;15.446;2024-03-02T01:42:36;96705.06;;;22.62;35.91
84387;BME280;74580;47.078;15.446;2024-03-02T01:45:01;96708.94;;;22.61;36.07
84387;BME280;74580;47.078;15.446;2024-03-02T01:47:27;96702.72;;;22.60;35.93
84387;BME280;74580;47.078;15.446;2024-03-02T01:49:52;96709.72;;;22.61;35.85
84387;BME280;74580;47.078;15.446;2024-03-02T01:52:18;96704.66;;;22.60;36.07
84387;BME280;74580;47.078;15.446;2024-03-02T01:54:43;96700.00;;;22.60;35.91
84387;BME280;74580;47.078;15.446;2024-03-02T01:57:09;96701.94;;;22.60;35.85
84387;BME280;74580;47.078;15.446;2024-03-02T01:59:35;96702.72;;;22.60;35.81
84387;BME280;74580;47.078;15.446;2024-03-02T02:02:00;96705.47;;;22.60;35.79
84387;BME280;74580;47.078;15.446;2024-03-02T02:04:26;96704.66;;;22.60;36.02
84387;BME280;74580;47.078;15.446;2024-03-02T02:06:53;96703.50;;;22.61;36.09
84387;BME280;74580;47.078;15.446;2024-03-02T02:09:19;96700.00;;;22.60;35.94
84387;BME280;74580;47.078;15.446;2024-03-02T02:11:44;96699.22;;;22.60;35.74
84387;BME280;74580;47.078;15.446;2024-03-02T02:14:10;96696.50;;;22.60;35.70
84387;BME280;74580;47.078;15.446;2024-03-02T02:16:36;96696.50;;;22.60;35.89
84387;BME280;74580;47.078;15.446;2024-03-02T02:19:02;96691.84;;;22.60;35.71
84387;BME280;74580;47.078;15.446;2024-03-02T02:21:27;96689.50;;;22.59;35.85
84387;BME280;74580;47.078;15.446;2024-03-02T02:23:52;96692.22;;;22.59;35.94
84387;BME280;74580;47.078;15.446;2024-03-02T02:26:18;96681.34;;;22.59;35.86
84387;BME280;74580;47.078;15.446;2024-03-02T02:28:43;96690.63;;;22.58;36.05
84387;BME280;74580;47.078;15.446;2024-03-02T02:31:15;96687.53;;;22.59;35.83
84387;BME280;74580;47.078;15.446;2024-03-02T02:33:42;96687.91;;;22.58;35.75
84387;BME280;74580;47.078;15.446;2024-03-02T02:36:07;96680.97;;;22.60;35.86
84387;BME280;74580;47.078;15.446;2024-03-02T02:38:36;96677.44;;;22.60;35.94
84387;BME280;74580;47.078;15.446;2024-03-02T02:41:03;96682.09;;;22.59;35.83
84387;BME280;74580;47.078;15.446;2024-03-02T02:43:28;96673.94;;;22.59;35.72
84387;BME280;74580;47.078;15.446;2024-03-02T02:45:54;96673.94;;;22.59;36.07
84387;BME280;74580;47.078;15.446;2024-03-02T02:48:19;96670.44;;;22.59;35.69
84387;BME280;74580;47.078;15.446;2024-03-02T02:50:45;96676.66;;;22.59;35.91
84387;BME280;74580;47.078;15.446;2024-03-02T02:53:10;96678.59;;;22.59;36.06
84387;BME280;74580;47.078;15.446;2024-03-02T02:55:35;96674.31;;;22.58;35.87
84387;BME280;74580;47.078;15.446;2024-03-02T02:58:06;96670.44;;;22.59;35.74
84387;BME280;74580;47.078;15.446;2024-03-02T03:00:31;96666.94;;;22.58;35.75
84387;BME280;74580;47.078;15.446;2024-03-02T03:02:56;96671.59;;;22.58;36.16
84387;BME280;74580;47.078;15.446;2024-03-02T03:05:22;96677.03;;;22.58;35.51
84387;BME280;74580;47.078;15.446;2024-03-02T03:07:47;96674.31;;;22.58;35.80
84387;BME280;74580;47.078;15.446;2024-03-02T03:10:15;96672.38;;;22.58;36.01
84387;BME280;74580;47.078;15.446;2024-03-02T03:12:41;96678.59;;;22.59;35.77
84387;BME280;74580;47.078;15.446;2024-03-02T03:15:08;96666.13;;;22.58;35.52
84387;BME280;74580;47.078;15.446;2024-03-02T03:17:34;96672.75;;;22.57;35.74
84387;BME280;74580;47.078;15.446;2024-03-02T03:20:01;96670.03;;;22.57;35.87
84387;BME280;74580;47.078;15.446;2024-03-02T03:22:26;96666.94;;;22.58;35.91
84387;BME280;74580;47.078;15.446;2024-03-02T03:24:52;96671.59;;;22.58;35.82
84387;BME280;74580;47.078;15.446;2024-03-02T03:27:18;96670.81;;;22.57;35.80
84387;BME280;74580;47.078;15.446;2024-03-02T03:29:45;96671.19;;;22.59;35.75
84387;BME280;74580;47.078;15.446;2024-03-02T03:32:10;96668.84;;;22.58;35.93
84387;BME280;74580;47.078;15.446;2024-03-02T03:34:35;96666.94;;;22.58;35.67
84387;BME280;74580;47.078;15.446;2024-03-02T03:37:02;96670.44;;;22.59;35.93
84387;BME280;74580;47.078;15.446;2024-03-02T03:39:27;96670.81;;;22.57;35.82
84387;BME280;74580;47.078;15.446;2024-03-02T03:41:54;96666.13;;;22.58;35.71
84387;BME280;74580;47.078;15.446;2024-03-02T03:44:19;96658.75;;;22.58;35.97
84387;BME280;74580;47.078;15.446;2024-03-02T03:46:45;96658.75;;;22.58;35.83
84387;BME280;74580;47.078;15.446;2024-03-02T03:49:11;96667.72;;;22.59;35.94
84387;BME280;74580;47.078;15.446;2024-03-02T03:51:36;96667.72;;;22.59;35.86
84387;BME280;74580;47.078;15.446;2024-03-02T03:54:01;96667.72;;;22.59;35.76
84387;BME280;74580;47.078;15.446;2024-03-02T03:56:27;96667.72;;;22.59;35.63
84387;BME280;74580;47.078;15.446;2024-03-02T03:58:52;96656.03;;;22.58;35.82
84387;BME280;74580;47.078;15.446;2024-03-02T04:01:18;96662.28;;;22.59;35.79
84387;BME280;74580;47.078;15.446;2024-03-02T04:03:43;96659.19;;;22.60;35.92
84387;BME280;74580;47.078;15.446;2024-03-02T04:06:09;96658.38;;;22.60;35.81
84387;BME280;74580;47.078;15.446;2024-03-02T04:08:34;96663.03;;;22.59;35.81
84387;BME280;74580;47.078;15.446;2024-03-02T04:10:59;96665.00;;;22.59;35.54
84387;BME280;74580;47.078;15.446;2024-03-02T04:13:25;96666.94;;;22.58;35.61
84387;BME280;74580;47.078;15.446;2024-03-02T04:15:50;96661.47;;;22.58;35.80
84387;BME280;74580;47.078;15.446;2024-03-02T04:18:15;96665.00;;;22.59;35.79
84387;BME280;74580;47.078;15.446;2024-03-02T04:20:41;96665.00;;;22.59;35.78
84387;BME280;74580;47.078;15.446;2024-03-02T04:23:07;96656.03;;;22.58;35.82
84387;BME280;74580;47.078;15.446;2024-03-02T04:25:32;96665.00;;;22.59;35.85
84387;BME280;74580;47.078;15.446;2024-03-02T04:27:58;96666.13;;;22.58;35.83
84387;BME280;74580;47.078;15.446;2024-03-02T04:30:23;96672.38;;;22.58;35.72
84387;BME280;74580;47.078;15.446;2024-03-02T04:32:50;96668.84;;;22.58;35.83
84387;BME280;74580;47.078;15.446;2024-03-02T04:35:15;96671.59;;;22.58;35.42
84387;BME280;74580;47.078;15.446;2024-03-02T04:37:41;96672.38;;;22.58;35.57
84387;BME280;74580;47.078;15.446;2024-03-02T04:40:06;96682.09;;;22.59;35.49
84387;BME280;74580;47.078;15.446;2024-03-02T04:42:35;96683.25;;;22.58;35.84
84387;BME280;74580;47.078;15.446;2024-03-02T04:45:01;96684.06;;;22.59;35.88
84387;BME280;74580;47.078;15.446;2024-03-02T04:47:26;96685.19;;;22.58;36.00
84387;BME280;74580;47.078;15.446;2024-03-02T04:49:52;96682.47;;;22.58;35.85
84387;BME280;74580;47.078;15.446;2024-03-02T04:52:17;96696.09;;;22.58;36.00
84387;BME280;74580;47.078;15.446;2024-03-02T04:54:43;96695.31;;;22.57;35.69
84387;BME280;74580;47.078;15.446;2024-03-02T04:57:27;96696.09;;;22.58;35.58
84387;BME280;74580;47.078;15.446;2024-03-02T04:59:52;96693.34;;;22.58;35.84
84387;BME280;74580;47.078;15.446;2024-03-02T05:02:18;96701.53;;;22.58;35.99
84387;BME280;74580;47.078;15.446;2024-03-02T05:04:45;96704.66;;;22.56;35.70
84387;BME280;74580;47.078;15.446;2024-03-02T05:07:11;96712.41;;;22.58;35.86
84387;BME280;74580;47.078;15.446;2024-03-02T05:09:36;96708.94;;;22.57;35.59
84387;BME280;74580;47.078;15.446;2024-03-02T05:12:02;96709.69;;;22.58;35.58
84387;BME280;74580;47.078;15.446;2024-03-02T05:14:46;96705.03;;;22.58;35.61
84387;BME280;74580;47.078;15.446;2024-03-02T05:17:11;96707.75;;;22.58;35.78
84387;BME280;74580;47.078;15.446;2024-03-02T05:19:36;96709.69;;;22.58;35.73
84387;BME280;74580;47.078;15.446;2024-03-02T05:22:02;96703.50;;;22.57;35.85
84387;BME280;74580;47.078;15.446;2024-03-02T05:24:28;96702.69;;;22.57;35.65
84387;BME280;74580;47.078;15.446;2024-03-02T05:26:54;96709.69;;;22.58;35.66
84387;BME280;74580;47.078;15.446;2024-03-02T05:29:19;96711.66;;;22.57;35.57
84387;BME280;74580;47.078;15.446;2024-03-02T05:31:44;96712.84;;;22.60;35.46
84387;BME280;74580;47.078;15.446;2024-03-02T05:34:10;96711.28;;;22.59;35.30
84387;BME280;74580;47.078;15.446;2024-03-02T05:36:35;96713.63;;;22.60;35.86
84387;BME280;74580;47.078;15.446;2024-03-02T05:39:01;96720.63;;;22.61;35.50
84387;BME280;74580;47.078;15.446;2024-03-02T05:41:29;96717.91;;;22.61;35.73
84387;BME280;74580;47.078;15.446;2024-03-02T05:43:55;96719.81;;;22.61;35.59
84387;BME280;74580;47.078;15.446;2024-03-02T05:46:20;96726.06;;;22.61;35.29
84387;BME280;74580;47.078;15.446;2024-03-02T05:48:45;96721.38;;;22.62;35.77
84387;BME280;74580;47.078;15.446;2024-03-02T05:51:11;96722.97;;;22.63;35.73
84387;BME280;74580;47.078;15.446;2024-03-02T05:53:36;96731.50;;;22.61;35.64
84387;BME280;74580;47.078;15.446;2024-03-02T05:56:04;96721.38;;;22.62;35.62
84387;BME280;74580;47.078;15.446;2024-03-02T05:58:29;96731.50;;;22.61;35.76
84387;BME280;74580;47.078;15.446;2024-03-02T06:01:13;96724.09;;;22.62;35.63
84387;BME280;74580;47.078;15.446;2024-03-02T06:03:38;96725.28;;;22.61;35.44
84387;BME280;74580;47.078;15.446;2024-03-02T06:06:04;96727.22;;;22.60;35.57
84387;BME280;74580;47.078;15.446;2024-03-02T06:08:29;96718.28;;;22.60;35.82
84387;BME280;74580;47.078;15.446;2024-03-02T06:10:55;96725.28;;;22.61;35.58
84387;BME280;74580;47.078;15.446;2024-03-02T06:13:21;96731.88;;;22.60;35.64
84387;BME280;74580;47.078;15.446;2024-03-02T06:15:46;96731.09;;;22.59;35.64
84387;BME280;74580;47.078;15.446;2024-03-02T06:18:12;96735.78;;;22.59;35.64
84387;BME280;74580;47.078;15.446;2024-03-02T06:20:37;96741.63;;;22.61;35.64
84387;BME280;74580;47.078;15.446;2024-03-02T06:23:04;96740.06;;;22.60;35.54
84387;BME280;74580;47.078;15.446;2024-03-02T06:25:29;96745.50;;;22.60;35.62
84387;BME280;74580;47.078;15.446;2024-03-02T06:27:54;96746.28;;;22.60;35.62
84387;BME280;74580;47.078;15.446;2024-03-02T06:30:20;96745.88;;;22.62;35.55
84387;BME280;74580;47.078;15.446;2024-03-02T06:32:45;96751.34;;;22.62;35.59
84387;BME280;74580;47.078;15.446;2024-03-02T06:35:10;96751.34;;;22.62;35.59
84387;BME280;74580;47.078;15.446;2024-03-02T06:37:38;96760.28;;;22.62;35.61
84387;BME280;74580;47.078;15.446;2024-03-02T06:40:06;96757.56;;;22.62;35.66
84387;BME280;74580;47.078;15.446;2024-03-02T06:42:33;96754.06;;;22.62;35.61
84387;BME280;74580;47.078;15.446;2024-03-02T06:44:59;96762.22;;;22.62;35.62
84387;BME280;74580;47.078;15.446;2024-03-02T06:47:24;96756.00;;;22.61;35.64
84387;BME280;74580;47.078;15.446;2024-03-02T06:49:49;96761.47;;;22.61;35.82
84387;BME280;74580;47.078;15.446;2024-03-02T06:52:16;96757.56;;;22.62;35.49
84387;BME280;74580;47.078;15.446;2024-03-02T06:54:41;96759.50;;;22.62;35.27
84387;BME280;74580;47.078;15.446;2024-03-02T06:57:06;96750.19;;;22.63;35.53
84387;BME280;74580;47.078;15.446;2024-03-02T06:59:32;96752.13;;;22.62;35.61
84387;BME280;74580;47.078;15.446;2024-03-02T07:01:58;96741.22;;;22.62;35.74
84387;BME280;74580;47.078;15.446;2024-03-02T07:04:24;96748.22;;;22.63;35.54
84387;BME280;74580;47.078;15.446;2024-03-02T07:06:49;96752.13;;;22.62;35.51
84387;BME280;74580;47.078;15.446;2024-03-02T07:09:16;96749.41;;;22.62;35.63
84387;BME280;74580;47.078;15.446;2024-03-02T07:11:41;96750.19;;;22.63;35.69
84387;BME280;74580;47.078;15.446;2024-03-02T07:14:07;96744.75;;;22.63;35.81
84387;BME280;74580;47.078;15.446;2024-03-02T07:16:32;96738.13;;;22.64;35.72
84387;BME280;74580;47.078;15.446;2024-03-02T07:18:59;96735.41;;;22.64;35.32
84387;BME280;74580;47.078;15.446;2024-03-02T07:21:26;96737.75;;;22.65;35.49
84387;BME280;74580;47.078;15.446;2024-03-02T07:23:52;96738.13;;;22.64;35.28
84387;BME280;74580;47.078;15.446;2024-03-02T07:26:17;96735.78;;;22.66;35.56
84387;BME280;74580;47.078;15.446;2024-03-02T07:28:47;96726.06;;;22.65;35.46
84387;BME280;74580;47.078;15.446;2024-03-02T07:31:13;96735.03;;;22.65;35.66
84387;BME280;74580;47.078;15.446;2024-03-02T07:33:39;96732.31;;;22.65;35.72
84387;BME280;74580;47.078;15.446;2024-03-02T07:36:04;96737.75;;;22.65;35.34
84387;BME280;74580;47.078;15.446;2024-03-02T07:38:30;96738.53;;;22.66;35.63
84387;BME280;74580;47.078;15.446;2024-03-02T07:40:56;96741.25;;;22.66;35.52
84387;BME280;74580;47.078;15.446;2024-03-02T07:43:22;96736.97;;;22.65;35.68
84387;BME280;74580;47.078;15.446;2024-03-02T07:45:48;96740.84;;;22.64;35.55
84387;BME280;74580;47.078;15.446;2024-03-02T07:48:14;96740.47;;;22.65;35.38
84387;BME280;74580;47.078;15.446;2024-03-02T07:50:40;96736.97;;;22.65;35.54
84387;BME280;74580;47.078;15.446;2024-03-02T07:53:05;96725.31;;;22.64;35.57
84387;BME280;74580;47.078;15.446;2024-03-02T07:55:32;96734.25;;;22.65;35.33
84387;BME280;74580;47.078;15.446;2024-03-02T07:57:58;96740.47;;;22.65;35.62
84387;BME280;74580;47.078;15.446;2024-03-02T08:00:24;96739.31;;;22.66;35.45
84387;BME280;74580;47.078;15.446;2024-03-02T08:02:51;96733.06;;;22.66;35.67
84387;BME280;74580;47.078;15.446;2024-03-02T08:05:17;96726.88;;;22.65;35.34
84387;BME280;74580;47.078;15.446;2024-03-02T08:07:44;96739.31;;;22.66;35.55
84387;BME280;74580;47.078;15.446;2024-03-02T08:10:10;96738.53;;;22.66;35.60
84387;BME280;74580;47.078;15.446;2024-03-02T08:12:36;96735.41;;;22.67;35.51
84387;BME280;74580;47.078;15.446;2024-03-02T08:15:02;96735.41;;;22.67;35.39
84387;BME280;74580;47.078;15.446;2024-03-02T08:17:27;96735.03;;;22.69;35.53
84387;BME280;74580;47.078;15.446;2024-03-02T08:19:52;96731.16;;;22.70;35.46
84387;BME280;74580;47.078;15.446;2024-03-02T08:22:18;96733.88;;;22.70;35.97
84387;BME280;74580;47.078;15.446;2024-03-02T08:24:44;96729.59;;;22.69;35.47
84387;BME280;74580;47.078;15.446;2024-03-02T08:27:10;96729.22;;;22.70;35.65
84387;BME280;74580;47.078;15.446;2024-03-02T08:29:35;96736.22;;;22.71;35.52
84387;BME280;74580;47.078;15.446;2024-03-02T08:32:01;96735.47;;;22.71;35.50
84387;BME280;74580;47.078;15.446;2024-03-02T08:34:26;96730.78;;;22.71;35.76
84387;BME280;74580;47.078;15.446;2024-03-02T08:36:51;96734.66;;;22.70;35.49
84387;BME280;74580;47.078;15.446;2024-03-02T08:39:17;96735.47;;;22.71;35.59
84387;BME280;74580;47.078;15.446;2024-03-02T08:41:45;96735.47;;;22.71;35.23
84387;BME280;74580;47.078;15.446;2024-03-02T08:44:12;96732.34;;;22.72;35.43
84387;BME280;74580;47.078;15.446;2024-03-02T08:46:37;96731.56;;;22.72;35.51
84387;BME280;74580;47.078;15.446;2024-03-02T08:49:03;96731.56;;;22.72;35.52
84387;BME280;74580;47.078;15.446;2024-03-02T08:51:29;96725.31;;;22.71;35.33
84387;BME280;74580;47.078;15.446;2024-03-02T08:53:54;96731.56;;;22.72;35.47
84387;BME280;74580;47.078;15.446;2024-03-02T08:56:19;96728.84;;;22.72;35.47
84387;BME280;74580;47.078;15.446;2024-03-02T08:58:46;96733.13;;;22.73;35.39
84387;BME280;74580;47.078;15.446;2024-03-02T09:01:12;96726.13;;;22.72;35.45
84387;BME280;74580;47.078;15.446;2024-03-02T09:03:37;96720.66;;;22.72;35.16
84387;BME280;74580;47.078;15.446;2024-03-02T09:06:03;96721.84;;;22.74;35.65
84387;BME280;74580;47.078;15.446;2024-03-02T09:08:29;96717.16;;;22.71;35.25
84387;BME280;74580;47.078;15.446;2024-03-02T09:10:55;96723.41;;;22.72;35.47
84387;BME280;74580;47.078;15.446;2024-03-02T09:13:21;96720.66;;;22.72;35.43
84387;BME280;74580;47.078;15.446;2024-03-02T09:15:47;96723.41;;;22.72;35.55
84387;BME280;74580;47.078;15.446;2024-03-02T09:18:12;96723.78;;;22.74;35.41
84387;BME280;74580;47.078;15.446;2024-03-02T09:20:38;96724.19;;;22.72;35.26
84387;BME280;74580;47.078;15.446;2024-03-02T09:23:03;96733.13;;;22.73;35.53
84387;BME280;74580;47.078;15.446;2024-03-02T09:25:29;96730.41;;;22.73;35.61
84387;BME280;74580;47.078;15.446;2024-03-02T09:27:54;96728.09;;;22.75;35.35
84387;BME280;74580;47.078;15.446;2024-03-02T09:30:19;96734.66;;;22.74;35.66
84387;BME280;74580;47.078;15.446;2024-03-02T09:32:45;96735.47;;;22.74;35.53
84387;BME280;74580;47.078;15.446;2024-03-02T09:35:10;96738.19;;;22.74;35.43
84387;BME280;74580;47.078;15.446;2024-03-02T09:37:37;96734.28;;;22.75;35.52
84387;BME280;74580;47.078;15.446;2024-03-02T09:40:03;96740.53;;;22.76;35.45
84387;BME280;74580;47.078;15.446;2024-03-02T09:42:29;96742.47;;;22.75;35.65
84387;BME280;74580;47.078;15.446;2024-03-02T09:44:54;96735.88;;;22.76;35.55
84387;BME280;74580;47.078;15.446;2024-03-02T09:47:20;96733.91;;;22.77;35.57
84387;BME280;74580;47.078;15.446;2024-03-02T09:49:46;96732.38;;;22.76;35.58
84387;BME280;74580;47.078;15.446;2024-03-02T09:52:12;96733.16;;;22.76;35.61
84387;BME280;74580;47.078;15.446;2024-03-02T09:54:38;96737.06;;;22.79;35.82
84387;BME280;74580;47.078;15.446;2024-03-02T09:57:04;96736.25;;;22.78;35.37
84387;BME280;74580;47.078;15.446;2024-03-02T09:59:29;96734.34;;;22.79;35.51
84387;BME280;74580;47.078;15.446;2024-03-02T10:01:56;96729.25;;;22.77;35.49
84387;BME280;74580;47.078;15.446;2024-03-02T10:04:28;96729.25;;;22.77;35.68
84387;BME280;74580;47.078;15.446;2024-03-02T10:09:39;96733.16;;;22.80;35.59
84387;BME280;74580;47.078;15.446;2024-03-02T10:12:06;96737.44;;;22.81;35.28
84387;BME280;74580;47.078;15.446;2024-03-02T10:14:32;96742.50;;;22.79;35.42
84387;BME280;74580;47.078;15.446;2024-03-02T10:17:11;96742.88;;;22.81;35.51
84387;BME280;74580;47.078;15.446;2024-03-02T10:19:38;96742.13;;;22.80;35.52
84387;BME280;74580;47.078;15.446;2024-03-02T10:22:08;96738.59;;;22.80;35.63
84387;BME280;74580;47.078;15.446;2024-03-02T10:24:44;96744.84;;;22.80;35.66
84387;BME280;74580;47.078;15.446;2024-03-02T10:27:15;96744.84;;;22.80;35.66
84387;BME280;74580;47.078;15.446;2024-03-02T10:29:41;96739.41;;;22.80;35.33
84387;BME280;74580;47.078;15.446;2024-03-02T10:32:10;96735.88;;;22.80;35.65
84387;BME280;74580;47.078;15.446;2024-03-02T10:34:37;96733.94;;;22.80;35.20
84387;BME280;74580;47.078;15.446;2024-03-02T10:37:03;96737.44;;;22.81;35.63
84387;BME280;74580;47.078;15.446;2024-03-02T10:39:29;96736.28;;;22.82;35.69
84387;BME280;74580;47.078;15.446;2024-03-02T10:41:56;96735.13;;;22.83;35.60
84387;BME280;74580;47.078;15.446;2024-03-02T10:44:22;96725.38;;;22.82;35.35
84387;BME280;74580;47.078;15.446;2024-03-02T10:46:49;96718.78;;;22.83;35.72
84387;BME280;74580;47.078;15.446;2024-03-02T10:49:16;96717.63;;;22.84;35.42
84387;BME280;74580;47.078;15.446;2024-03-02T10:51:42;96715.69;;;22.84;35.62
84387;BME280;74580;47.078;15.446;2024-03-02T10:54:07;96713.72;;;22.85;35.37
84387;BME280;74580;47.078;15.446;2024-03-02T10:56:38;96707.50;;;22.84;35.36
84387;BME280;74580;47.078;15.446;2024-03-02T11:01:38;96708.31;;;22.88;35.49
84387;BME280;74580;47.078;15.446;2024-03-02T11:04:08;96705.59;;;22.88;35.27
84387;BME280;74580;47.078;15.446;2024-03-02T11:06:34;96696.25;;;22.89;35.30
84387;BME280;74580;47.078;15.446;2024-03-02T11:09:06;96700.53;;;22.90;35.68
84387;BME280;74580;47.078;15.446;2024-03-02T11:11:36;96695.88;;;22.91;35.42
84387;BME280;74580;47.078;15.446;2024-03-02T11:14:04;96686.53;;;22.92;35.63
84387;BME280;74580;47.078;15.446;2024-03-02T11:16:34;96682.25;;;22.91;35.90
84387;BME280;74580;47.078;15.446;2024-03-02T11:19:07;96684.97;;;22.94;35.44
84387;BME280;74580;47.078;15.446;2024-03-02T11:21:34;96684.19;;;22.94;35.88
84387;BME280;74580;47.078;15.446;2024-03-02T11:24:00;96682.25;;;22.94;35.71
84387;BME280;74580;47.078;15.446;2024-03-02T11:26:46;96679.94;;;22.96;35.32
84387;BME280;74580;47.078;15.446;2024-03-02T11:32:25;96671.75;;;23.00;35.72
84387;BME280;74580;47.078;15.446;2024-03-02T11:34:51;96663.97;;;23.02;35.68
84387;BME280;74580;47.078;15.446;2024-03-02T11:37:18;96662.81;;;23.03;35.61
84387;BME280;74580;47.078;15.446;2024-03-02T11:39:44;96653.88;;;23.02;35.58
84387;BME280;74580;47.078;15.446;2024-03-02T11:42:11;96660.09;;;23.03;35.43
84387;BME280;74580;47.078;15.446;2024-03-02T11:44:39;96658.53;;;23.05;35.84
84387;BME280;74580;47.078;15.446;2024-03-02T11:47:07;96657.00;;;23.08;35.34
84387;BME280;74580;47.078;15.446;2024-03-02T11:52:07;96655.44;;;23.07;35.84
84387;BME280;74580;47.078;15.446;2024-03-02T11:54:35;96656.22;;;23.07;35.72
84387;BME280;74580;47.078;15.446;2024-03-02T11:57:02;96648.44;;;23.09;35.57
84387;BME280;74580;47.078;15.446;2024-03-02T11:59:29;96649.59;;;23.12;35.81
84387;BME280;74580;47.078;15.446;2024-03-02T12:01:56;96637.53;;;23.13;35.50
84387;BME280;74580;47.078;15.446;2024-03-02T12:04:22;96639.88;;;23.14;35.48
84387;BME280;74580;47.078;15.446;2024-03-02T12:06:54;96641.06;;;23.17;35.37
84387;BME280;74580;47.078;15.446;2024-03-02T12:09:21;96643.38;;;23.18;35.51
84387;BME280;74580;47.078;15.446;2024-03-02T12:11:46;96643.03;;;23.20;35.54
84387;BME280;74580;47.078;15.446;2024-03-02T12:14:12;96643.41;;;23.22;35.52
84387;BME280;74580;47.078;15.446;2024-03-02T12:16:38;96641.84;;;23.24;35.74
84387;BME280;74580;47.078;15.446;2024-03-02T12:19:05;96625.91;;;23.26;35.55
84387;BME280;74580;47.078;15.446;2024-03-02T12:21:31;96630.97;;;23.28;35.34
84387;BME280;74580;47.078;15.446;2024-03-02T12:23:57;96627.88;;;23.29;35.39
84387;BME280;74580;47.078;15.446;2024-03-02T12:26:22;96629.41;;;23.30;35.31
84387;BME280;74580;47.078;15.446;2024-03-02T12:28:48;96624.75;;;23.31;35.44
84387;BME280;74580;47.078;15.446;2024-03-02T12:31:13;96629.81;;;23.29;35.47
84387;BME280;74580;47.078;15.446;2024-03-02T12:33:40;96620.84;;;23.25;35.63
84387;BME280;74580;47.078;15.446;2024-03-02T12:36:09;96620.84;;;23.25;35.87
84387;BME280;74580;47.078;15.446;2024-03-02T12:38:37;96625.13;;;23.26;35.65
84387;BME280;74580;47.078;15.446;2024-03-02T12:41:02;96621.63;;;23.25;35.81
84387;BME280;74580;47.078;15.446;2024-03-02T12:43:31;96618.13;;;23.25;35.71
84387;BME280;74580;47.078;15.446;2024-03-02T12:45:57;96617.75;;;23.23;35.67
84387;BME280;74580;47.078;15.446;2024-03-02T12:48:23;96615.41;;;23.21;35.66
84387;BME280;74580;47.078;15.446;2024-03-02T12:50:49;96609.16;;;23.21;35.59
84387;BME280;74580;47.078;15.446;2024-03-02T12:53:15;96611.47;;;23.19;35.70
84387;BME280;74580;47.078;15.446;2024-03-02T12:55:41;96611.47;;;23.19;35.88
84387;BME280;74580;47.078;15.446;2024-03-02T12:58:06;96609.53;;;23.19;35.60